Time;durP1;ratioP1;P1;durP2;ratioP2;P2;SDS_P1;SDS_P2;PMS_P1;PMS_P2;Temp;Humidity;BMP_temperature;BMP_pressure;BME280_temperature;BME280_humidity;BME280_pressure;Samples;Min_cycle;Max_cycle;Signal;HPM_P1;HPM_P2
2022/09/17 00:00:42;;;;;;;7.88;1.15;;;11.80;99.90;;;;;;5021804;28;20038;-72
2022/09/17 00:03:08;;;;;;;10.03;1.27;;;11.80;99.90;;;;;;5022036;28;20045;-72
2022/09/17 00:05:38;;;;;;;8.95;1.52;;;11.80;99.90;;;;;;5018417;28;20124;-73
2022/09/17 00:08:10;;;;;;;6.13;1.00;;;11.80;99.90;;;;;;5019956;28;20530;-73
2022/09/17 00:10:39;;;;;;;12.18;1.38;;;11.80;99.90;;;;;;5015286;28;20042;-72
2022/09/17 00:13:06;;;;;;;4.03;0.95;;;11.80;99.90;;;;;;5019828;28;20181;-72
2022/09/17 00:15:31;;;;;;;5.97;1.13;;;11.80;99.90;;;;;;5016500;28;20521;-72
2022/09/17 00:17:57;;;;;;;9.20;0.98;;;11.70;99.90;;;;;;5014589;28;20124;-72
2022/09/17 00:20:25;;;;;;;7.35;1.58;;;11.80;99.90;;;;;;5019439;28;20083;-71
2022/09/17 00:22:51;;;;;;;5.70;1.00;;;11.80;99.90;;;;;;5019981;28;20045;-71
2022/09/17 00:25:16;;;;;;;11.82;1.55;;;11.80;99.90;;;;;;5018334;28;20037;-72
2022/09/17 00:27:42;;;;;;;5.75;1.33;;;11.80;99.90;;;;;;5019232;28;20060;-72
2022/09/17 00:30:08;;;;;;;10.83;1.47;;;11.80;99.90;;;;;;5023127;28;20514;-71
2022/09/17 00:32:34;;;;;;;;;;;11.80;99.90;;;;;;5016411;28;20506;-73
2022/09/17 00:35:00;;;;;;;11.77;1.60;;;11.70;99.90;;;;;;5018751;28;19966;-71
2022/09/17 00:37:25;;;;;;;7.60;1.00;;;11.70;99.90;;;;;;5024924;28;20045;-71
2022/09/17 00:39:51;;;;;;;7.23;1.10;;;11.70;99.90;;;;;;5025373;28;20106;-73
2022/09/17 00:42:18;;;;;;;10.47;1.37;;;11.70;99.90;;;;;;5016048;28;20049;-72
2022/09/17 00:44:49;;;;;;;6.60;1.30;;;11.70;99.90;;;;;;5021402;28;20407;-71
2022/09/17 00:47:27;;;;;;;8.60;1.38;;;11.70;99.90;;;;;;5016120;28;20045;-73
2022/09/17 00:50:01;;;;;;;6.18;0.98;;;11.70;99.90;;;;;;5025864;28;20033;-73
2022/09/17 00:52:42;;;;;;;7.55;1.13;;;11.70;99.90;;;;;;5018550;28;20626;-72
2022/09/17 00:55:22;;;;;;;11.38;1.30;;;11.70;99.90;;;;;;5024146;28;20095;-71
2022/09/17 00:57:51;;;;;;;10.20;0.95;;;11.70;99.90;;;;;;5015868;28;20120;-71
2022/09/17 01:00:17;;;;;;;9.13;0.95;;;11.70;99.90;;;;;;5020689;28;20060;-72
2022/09/17 01:02:43;;;;;;;4.22;0.98;;;11.70;99.90;;;;;;5028054;28;20090;-72
2022/09/17 01:05:10;;;;;;;5.13;1.27;;;11.70;99.90;;;;;;5022409;28;20104;-73
2022/09/17 01:07:44;;;;;;;4.53;1.08;;;11.70;99.90;;;;;;5025627;28;20109;-73
2022/09/17 01:10:13;;;;;;;3.92;0.57;;;11.70;99.90;;;;;;5022889;28;20048;-73
2022/09/17 01:12:52;;;;;;;8.38;1.08;;;11.60;99.90;;;;;;5021504;28;20216;-72
2022/09/17 01:15:46;;;;;;;5.07;0.93;;;11.60;99.90;;;;;;5021317;28;20088;-72
2022/09/17 01:18:33;;;;;;;4.30;0.68;;;11.60;99.90;;;;;;5018315;28;20483;-72
2022/09/17 01:21:18;;;;;;;5.22;0.80;;;11.60;99.90;;;;;;5025495;28;20424;-72
2022/09/17 01:24:21;;;;;;;5.32;0.95;;;11.50;99.90;;;;;;5020631;28;20053;-73
2022/09/17 01:27:17;;;;;;;6.43;0.82;;;11.60;99.90;;;;;;5023254;28;20147;-73
2022/09/17 01:30:08;;;;;;;7.57;1.42;;;11.40;99.90;;;;;;5021538;28;20621;-72
2022/09/17 01:33:02;;;;;;;8.63;1.58;;;11.40;99.90;;;;;;5021631;28;20587;-72
2022/09/17 01:35:48;;;;;;;6.10;1.17;;;11.50;99.90;;;;;;5028156;28;20116;-73
2022/09/17 01:38:26;;;;;;;4.25;1.00;;;11.50;99.90;;;;;;5022847;28;20166;-72
2022/09/17 01:41:21;;;;;;;5.22;1.33;;;11.50;99.90;;;;;;5028735;28;20435;-74
2022/09/17 01:44:01;;;;;;;6.15;0.95;;;11.50;99.90;;;;;;4998609;28;20147;-73
2022/09/17 01:46:36;;;;;;;6.28;1.02;;;11.50;99.90;;;;;;5013389;28;20132;-72
2022/09/17 01:49:12;;;;;;;11.88;1.25;;;11.40;99.90;;;;;;5019167;28;20148;-71
2022/09/17 01:51:45;;;;;;;8.57;1.67;;;11.50;99.90;;;;;;5068810;22;20036;-67
2022/09/17 01:54:24;;;;;;;7.78;1.38;;;11.40;99.90;;;;;;5065885;28;20050;-67
2022/09/17 01:57:28;;;;;;;6.70;1.17;;;11.40;99.90;;;;;;5078581;28;20032;-67
2022/09/17 02:00:02;;;;;;;6.43;0.88;;;11.40;99.90;;;;;;5008820;28;20354;-68
2022/09/17 02:02:33;;;;;;;5.05;1.10;;;11.40;99.90;;;;;;5053150;28;20055;-67
2022/09/17 02:05:27;;;;;;;5.60;1.17;;;11.40;99.90;;;;;;5080227;28;20043;-67
2022/09/17 02:08:23;;;;;;;4.00;1.13;;;11.40;99.90;;;;;;5057981;28;20043;-67
2022/09/17 02:10:57;;;;;;;5.07;0.95;;;11.40;99.90;;;;;;5078887;28;20040;-67
2022/09/17 02:13:42;;;;;;;11.85;1.75;;;11.40;99.90;;;;;;5081048;28;20044;-67
2022/09/17 02:16:29;;;;;;;4.65;0.80;;;11.40;99.90;;;;;;5061050;28;20080;-67
2022/09/17 02:19:16;;;;;;;4.13;0.70;;;11.30;99.90;;;;;;5059910;28;20047;-67
2022/09/17 02:22:09;;;;;;;8.37;1.00;;;11.30;99.90;;;;;;5081793;28;20117;-68
2022/09/17 02:24:45;;;;;;;5.93;0.55;;;11.20;99.90;;;;;;5068289;28;20359;-68
2022/09/17 02:27:22;;;;;;;7.18;1.00;;;11.20;99.90;;;;;;5057893;28;20044;-68
2022/09/17 02:29:49;;;;;;;6.55;0.88;;;11.10;99.90;;;;;;5067844;28;20581;-68
2022/09/17 02:32:14;;;;;;;7.68;0.85;;;11.10;99.90;;;;;;5057182;28;20087;-67
2022/09/17 02:34:40;;;;;;;3.40;0.65;;;11.10;99.90;;;;;;5045944;28;20067;-67
2022/09/17 02:37:07;;;;;;;9.38;1.33;;;11.00;99.90;;;;;;5064858;28;20485;-67
2022/09/17 02:39:33;;;;;;;4.05;0.57;;;11.00;99.90;;;;;;5061725;28;20128;-67
2022/09/17 02:42:05;;;;;;;9.55;1.42;;;11.00;99.90;;;;;;5051032;28;20036;-68
2022/09/17 02:44:54;;;;;;;3.85;0.77;;;11.00;99.90;;;;;;5085444;28;20093;-68
2022/09/17 02:47:52;;;;;;;3.83;0.90;;;11.00;99.90;;;;;;5062626;28;20046;-67
2022/09/17 02:50:36;;;;;;;4.47;1.13;;;10.90;99.90;;;;;;5078934;28;20097;-68
2022/09/17 02:53:21;;;;;;;5.70;1.10;;;10.90;99.90;;;;;;5081633;28;20040;-67
2022/09/17 02:56:01;;;;;;;2.47;0.68;;;10.90;99.90;;;;;;5077184;28;20036;-68
2022/09/17 02:58:44;;;;;;;6.60;1.17;;;10.90;99.90;;;;;;5069517;28;20039;-67
2022/09/17 03:01:26;;;;;;;5.22;0.85;;;10.90;99.90;;;;;;5076773;28;20037;-67
2022/09/17 03:03:55;;;;;;;5.10;1.08;;;10.90;99.90;;;;;;5073809;28;20036;-68
2022/09/17 03:06:22;;;;;;;9.75;1.15;;;10.90;99.90;;;;;;5082076;28;20036;-67
2022/09/17 03:08:47;;;;;;;5.55;0.90;;;10.80;99.90;;;;;;5073674;28;20392;-67
2022/09/17 03:11:13;;;;;;;3.83;0.93;;;10.80;99.90;;;;;;5059706;28;20113;-67
2022/09/17 03:13:40;;;;;;;5.65;0.85;;;10.70;99.90;;;;;;5065762;28;20460;-67
2022/09/17 03:16:06;;;;;;;6.75;0.82;;;10.80;99.90;;;;;;5064981;28;20538;-67
2022/09/17 03:18:32;;;;;;;6.38;1.13;;;10.80;99.90;;;;;;5082173;28;20078;-67
2022/09/17 03:20:58;;;;;;;5.57;0.85;;;10.80;99.90;;;;;;5064180;28;20036;-68
2022/09/17 03:23:24;;;;;;;2.00;0.60;;;10.80;99.90;;;;;;5066098;28;20063;-67
2022/09/17 03:25:50;;;;;;;4.22;0.80;;;10.80;99.90;;;;;;5080339;28;20044;-68
2022/09/17 03:28:16;;;;;;;11.02;1.23;;;10.80;99.90;;;;;;5063948;28;20081;-67
2022/09/17 03:30:45;;;;;;;7.85;1.45;;;10.80;99.90;;;;;;5083246;28;20123;-67
2022/09/17 03:33:11;;;;;;;7.32;1.02;;;10.80;99.90;;;;;;5062794;28;20144;-67
2022/09/17 03:35:37;;;;;;;4.35;0.65;;;10.80;99.90;;;;;;5082600;28;20120;-67
2022/09/17 03:38:03;;;;;;;6.03;0.70;;;10.80;99.90;;;;;;5062070;28;20055;-67
2022/09/17 03:40:29;;;;;;;6.32;0.60;;;10.80;99.90;;;;;;5060580;28;20040;-67
2022/09/17 03:42:55;;;;;;;7.67;1.10;;;10.80;99.90;;;;;;5060590;28;20093;-68
2022/09/17 03:45:20;;;;;;;5.17;0.73;;;10.90;99.90;;;;;;5081033;28;20357;-67
2022/09/17 03:47:46;;;;;;;9.27;1.27;;;10.90;99.90;;;;;;5060608;28;20292;-67
2022/09/17 03:50:12;;;;;;;5.00;0.85;;;10.90;99.90;;;;;;5078752;28;20043;-67
2022/09/17 03:52:38;;;;;;;4.40;1.00;;;10.80;99.90;;;;;;5059659;28;20410;-67
2022/09/17 03:55:04;;;;;;;8.00;1.13;;;10.90;99.90;;;;;;5050211;28;20040;-67
2022/09/17 03:57:30;;;;;;;9.55;1.23;;;10.90;99.90;;;;;;5067328;28;20036;-67
2022/09/17 03:59:55;;;;;;;8.83;1.03;;;10.90;99.90;;;;;;5081393;28;20036;-68
2022/09/17 04:02:21;;;;;;;7.43;1.00;;;10.90;99.90;;;;;;5061635;28;20482;-67
2022/09/17 04:04:47;;;;;;;3.60;0.80;;;10.80;99.90;;;;;;5062766;28;20040;-67
2022/09/17 04:07:12;;;;;;;7.32;1.20;;;10.80;99.90;;;;;;5063135;28;20040;-68
2022/09/17 04:09:38;;;;;;;5.33;0.90;;;10.80;99.90;;;;;;5062586;28;20100;-67
2022/09/17 04:12:04;;;;;;;4.80;1.37;;;10.80;99.90;;;;;;5081063;28;20054;-67
2022/09/17 04:14:29;;;;;;;5.33;0.90;;;10.90;99.90;;;;;;5081587;28;20056;-67
2022/09/17 04:16:57;;;;;;;12.88;1.67;;;10.90;99.90;;;;;;5064402;28;20098;-68
2022/09/17 04:19:23;;;;;;;6.07;1.00;;;10.90;99.90;;;;;;5061878;28;20048;-67
2022/09/17 04:21:49;;;;;;;8.20;1.15;;;10.90;99.90;;;;;;5081295;28;20127;-67
2022/09/17 04:24:14;;;;;;;7.93;1.43;;;10.90;99.90;;;;;;5062598;28;20615;-67
2022/09/17 04:26:40;;;;;;;8.03;1.00;;;10.90;99.90;;;;;;5051503;28;20134;-68
2022/09/17 04:29:06;;;;;;;5.90;1.40;;;10.90;99.90;;;;;;5057115;28;20288;-68
2022/09/17 04:31:31;;;;;;;5.97;1.00;;;11.00;99.90;;;;;;5073201;28;20032;-67
2022/09/17 04:33:57;;;;;;;2.90;0.60;;;10.90;99.90;;;;;;5064998;28;20304;-68
2022/09/17 04:36:23;;;;;;;8.97;2.23;;;10.90;99.90;;;;;;5061939;28;20335;-68
2022/09/17 04:38:49;;;;;;;5.87;0.73;;;10.90;99.90;;;;;;5070047;28;20512;-67
2022/09/17 04:41:14;;;;;;;7.05;1.40;;;10.90;99.90;;;;;;5081434;28;20036;-67
2022/09/17 04:43:40;;;;;;;3.80;0.60;;;10.90;99.90;;;;;;5085611;28;20035;-67
2022/09/17 04:46:06;;;;;;;3.27;0.60;;;10.90;99.90;;;;;;5079003;28;20485;-67
2022/09/17 04:48:31;;;;;;;5.82;0.55;;;10.80;99.90;;;;;;5080234;28;20123;-67
2022/09/17 04:50:57;;;;;;;2.90;0.57;;;10.90;99.90;;;;;;5083746;28;20036;-67
2022/09/17 04:53:23;;;;;;;3.53;0.80;;;10.80;99.90;;;;;;5061780;28;20048;-67
2022/09/17 04:55:48;;;;;;;6.72;1.15;;;10.80;99.90;;;;;;5078210;28;20097;-67
2022/09/17 04:58:14;;;;;;;5.30;0.93;;;10.80;99.90;;;;;;5077222;28;20433;-67
2022/09/17 05:00:43;;;;;;;9.23;1.10;;;10.80;99.90;;;;;;5069586;28;20490;-67
2022/09/17 05:03:09;;;;;;;12.52;1.80;;;10.80;99.90;;;;;;5064387;28;20266;-67
2022/09/17 05:05:34;;;;;;;7.57;1.33;;;10.80;99.90;;;;;;5062439;28;20039;-67
2022/09/17 05:08:00;;;;;;;9.47;0.80;;;10.80;99.90;;;;;;5059127;28;20040;-67
2022/09/17 05:10:26;;;;;;;3.10;0.80;;;10.80;99.90;;;;;;5082120;28;20040;-67
2022/09/17 05:12:54;;;;;;;5.43;0.80;;;10.80;99.90;;;;;;5069536;28;20135;-67
2022/09/17 05:15:23;;;;;;;3.97;0.70;;;10.70;99.90;;;;;;5057116;28;20207;-68
2022/09/17 05:17:49;;;;;;;5.38;0.60;;;10.70;99.90;;;;;;5062635;28;20449;-67
2022/09/17 05:20:15;;;;;;;4.85;0.73;;;10.60;99.90;;;;;;5070962;28;20123;-68
2022/09/17 05:22:45;;;;;;;2.50;0.43;;;10.60;99.90;;;;;;5063886;28;20047;-67
2022/09/17 05:25:13;;;;;;;5.82;0.80;;;10.60;99.90;;;;;;5061025;28;20055;-68
2022/09/17 05:27:40;;;;;;;4.82;0.65;;;10.60;99.90;;;;;;5076430;28;20032;-67
2022/09/17 05:30:07;;;;;;;3.60;0.63;;;10.60;99.90;;;;;;5077763;28;20321;-67
2022/09/17 05:32:33;;;;;;;8.63;0.88;;;10.60;99.90;;;;;;5051094;28;20058;-67
2022/09/17 05:34:58;;;;;;;8.20;1.08;;;10.50;99.90;;;;;;5061596;28;20523;-68
2022/09/17 05:37:24;;;;;;;5.43;0.80;;;10.60;99.90;;;;;;5071122;28;20032;-67
2022/09/17 05:39:50;;;;;;;9.30;0.87;;;10.60;99.90;;;;;;5076391;28;20517;-67
2022/09/17 05:42:15;;;;;;;5.03;0.57;;;10.70;99.90;;;;;;5079762;28;20032;-67
2022/09/17 05:44:41;;;;;;;1.27;0.50;;;10.70;99.90;;;;;;5080374;28;20129;-67
2022/09/17 05:47:06;;;;;;;8.27;0.80;;;10.70;99.90;;;;;;5054830;28;20051;-67
2022/09/17 05:49:32;;;;;;;4.77;0.77;;;10.70;99.90;;;;;;5060811;28;20117;-67
2022/09/17 05:51:57;;;;;;;7.13;0.83;;;10.70;99.90;;;;;;5063351;28;20036;-67
2022/09/17 05:54:23;;;;;;;3.07;0.60;;;10.70;99.90;;;;;;5081197;28;20044;-67
2022/09/17 05:56:52;;;;;;;5.10;0.57;;;10.70;99.90;;;;;;5064079;28;20036;-67
2022/09/17 05:59:18;;;;;;;4.10;1.05;;;10.70;99.90;;;;;;5061410;28;20459;-67
2022/09/17 06:01:44;;;;;;;6.17;1.30;;;10.80;99.90;;;;;;5058851;28;20055;-67
2022/09/17 06:04:10;;;;;;;9.98;1.20;;;10.80;99.90;;;;;;5085169;28;20044;-67
2022/09/17 06:06:37;;;;;;;7.43;0.73;;;10.90;99.90;;;;;;5057586;28;20052;-67
2022/09/17 06:09:06;;;;;;;3.35;0.50;;;10.80;99.90;;;;;;5068591;28;20633;-67
2022/09/17 06:11:32;;;;;;;2.60;0.60;;;10.90;99.90;;;;;;5075343;28;20063;-67
2022/09/17 06:13:57;;;;;;;2.63;0.50;;;10.90;99.90;;;;;;5062925;28;20134;-67
2022/09/17 06:16:23;;;;;;;4.47;0.90;;;10.90;99.90;;;;;;5077431;28;20059;-67
2022/09/17 06:18:51;;;;;;;4.63;0.57;;;10.90;99.90;;;;;;5062005;28;20125;-70
2022/09/17 06:21:17;;;;;;;4.57;0.60;;;10.90;99.90;;;;;;5067417;28;20122;-69
2022/09/17 06:23:43;;;;;;;4.05;0.50;;;10.90;99.90;;;;;;5060841;28;20324;-69
2022/09/17 06:26:09;;;;;;;3.20;0.50;;;10.90;99.90;;;;;;5072565;28;20044;-70
2022/09/17 06:28:35;;;;;;;6.75;0.60;;;10.90;99.90;;;;;;5068448;28;20197;-70
2022/09/17 06:31:05;;;;;;;2.53;0.98;;;10.90;99.90;;;;;;5060740;28;20043;-69
2022/09/17 06:33:32;;;;;;;6.10;0.75;;;10.90;99.90;;;;;;5084186;28;20417;-69
2022/09/17 06:35:59;;;;;;;;;;;10.90;99.90;;;;;;5078497;28;20504;-69
2022/09/17 06:38:30;;;;;;;1.13;0.50;;;10.90;99.90;;;;;;5075809;28;20200;-70
2022/09/17 06:40:56;;;;;;;3.75;0.50;;;10.90;99.90;;;;;;5081615;28;20052;-72
2022/09/17 06:43:22;;;;;;;5.88;1.67;;;10.90;99.90;;;;;;5074852;28;20562;-70
2022/09/17 06:46:07;;;;;;;1.42;0.60;;;11.00;99.90;;;;;;5065152;28;20063;-70
2022/09/17 06:48:35;;;;;;;6.60;0.70;;;11.00;99.90;;;;;;5060198;28;20044;-70
2022/09/17 06:51:03;;;;;;;5.60;0.85;;;11.00;99.90;;;;;;5081596;28;20055;-70
2022/09/17 06:53:29;;;;;;;3.10;0.75;;;11.00;99.90;;;;;;5050208;28;20055;-70
2022/09/17 06:55:59;;;;;;;5.93;0.77;;;11.00;99.90;;;;;;5084285;28;20152;-70
2022/09/17 06:58:25;;;;;;;3.65;0.95;;;11.10;99.90;;;;;;5081927;28;20466;-70
2022/09/17 07:00:51;;;;;;;1.30;0.45;;;11.20;99.90;;;;;;5053804;28;20051;-70
2022/09/17 07:03:17;;;;;;;6.78;0.70;;;11.20;99.90;;;;;;5063814;28;20039;-70
2022/09/17 07:05:52;;;;;;;3.50;0.60;;;11.30;99.90;;;;;;5064831;28;20241;-70
2022/09/17 07:08:17;;;;;;;5.60;0.60;;;11.40;99.90;;;;;;5057951;28;20043;-70
2022/09/17 07:10:45;;;;;;;7.83;0.97;;;11.50;99.90;;;;;;5074281;28;20337;-70
2022/09/17 07:13:11;;;;;;;9.57;1.17;;;11.50;99.90;;;;;;5082463;28;20157;-70
2022/09/17 07:15:36;;;;;;;3.60;1.00;;;11.60;99.90;;;;;;5057628;28;20463;-70
2022/09/17 07:18:07;;;;;;;;;;;11.60;99.90;;;;;;5083194;28;20409;-69
2022/09/17 07:20:33;;;;;;;3.42;1.00;;;11.60;99.90;;;;;;5072962;28;20498;-75
2022/09/17 07:22:58;;;;;;;7.30;0.87;;;11.80;99.90;;;;;;5052192;28;20143;-71
2022/09/17 07:25:25;;;;;;;8.20;0.80;;;11.80;99.90;;;;;;5089759;28;20619;-70
2022/09/17 07:27:51;;;;;;;6.85;1.17;;;11.90;99.90;;;;;;5057922;28;20105;-70
2022/09/17 07:30:17;;;;;;;1.88;0.50;;;12.00;99.90;;;;;;5062254;28;20451;-70
2022/09/17 07:32:43;;;;;;;2.03;0.50;;;12.10;99.90;;;;;;5071071;28;20056;-71
2022/09/17 07:35:09;;;;;;;2.42;0.30;;;12.20;99.90;;;;;;5065614;28;20486;-70
2022/09/17 07:37:35;;;;;;;4.65;0.70;;;12.20;99.90;;;;;;5055426;28;20572;-70
2022/09/17 07:40:00;;;;;;;2.57;0.40;;;12.10;99.90;;;;;;5075453;28;20078;-70
2022/09/17 07:42:26;;;;;;;2.33;0.40;;;12.00;99.90;;;;;;5075823;28;20481;-70
2022/09/17 07:44:52;;;;;;;1.87;0.40;;;12.00;99.90;;;;;;5068913;28;20066;-71
2022/09/17 07:47:18;;;;;;;5.18;1.02;;;11.90;99.90;;;;;;5072390;28;20044;-70
2022/09/17 07:49:44;;;;;;;;;;;11.90;99.90;;;;;;5081009;28;20447;-70
2022/09/17 07:52:10;;;;;;;4.32;0.50;;;11.90;99.90;;;;;;5078470;28;19981;-70
2022/09/17 07:54:38;;;;;;;3.10;0.67;;;11.90;99.90;;;;;;5078835;28;20119;-70
2022/09/17 07:57:04;;;;;;;6.55;0.70;;;11.90;99.90;;;;;;5081252;28;20043;-70
2022/09/17 07:59:30;;;;;;;2.77;0.50;;;11.90;99.90;;;;;;5080401;28;20040;-70
2022/09/17 08:01:55;;;;;;;6.18;0.73;;;11.80;99.90;;;;;;5068423;28;20888;-70
2022/09/17 08:04:21;;;;;;;6.35;0.52;;;11.80;99.90;;;;;;5060717;28;20044;-70
2022/09/17 08:06:48;;;;;;;7.75;0.68;;;11.80;99.90;;;;;;5060080;28;20046;-70
2022/09/17 08:09:15;;;;;;;4.00;1.02;;;11.70;99.90;;;;;;5058040;28;20054;-69
2022/09/17 08:11:41;;;;;;;4.22;0.63;;;11.80;99.90;;;;;;5055139;28;20415;-69
2022/09/17 08:14:13;;;;;;;8.68;0.70;;;11.90;99.90;;;;;;5060592;28;20048;-70
2022/09/17 08:16:41;;;;;;;5.78;0.65;;;12.00;99.90;;;;;;5073743;28;20044;-70
2022/09/17 08:19:10;;;;;;;8.32;1.27;;;12.10;99.90;;;;;;5043232;28;20040;-70
2022/09/17 08:21:36;;;;;;;7.20;1.25;;;12.20;99.90;;;;;;5078164;28;20028;-69
2022/09/17 08:24:02;;;;;;;1.17;0.40;;;12.20;99.90;;;;;;5084259;28;20036;-70
2022/09/17 08:26:27;;;;;;;4.15;0.60;;;12.20;99.90;;;;;;5076267;28;20422;-70
2022/09/17 08:28:55;;;;;;;6.07;0.60;;;12.20;99.90;;;;;;5073846;28;20040;-70
2022/09/17 08:31:23;;;;;;;3.42;0.43;;;12.10;99.90;;;;;;5074183;28;20277;-70
2022/09/17 08:33:49;;;;;;;1.63;0.47;;;12.10;99.90;;;;;;5076838;28;20044;-70
2022/09/17 08:36:18;;;;;;;3.67;0.50;;;11.90;99.90;;;;;;5061746;28;20047;-71
2022/09/17 08:38:44;;;;;;;0.77;0.20;;;11.90;99.90;;;;;;5053691;28;20044;-71
2022/09/17 08:41:09;;;;;;;2.22;0.40;;;11.70;99.90;;;;;;5059052;28;20048;-71
2022/09/17 08:43:49;;;;;;;9.50;1.02;;;11.60;99.90;;;;;;5076611;28;20048;-71
2022/09/17 08:46:15;;;;;;;1.08;0.20;;;11.60;99.90;;;;;;5072096;28;20078;-71
2022/09/17 08:49:13;;;;;;;10.33;1.03;;;11.70;99.90;;;;;;5058224;28;20410;-71
2022/09/17 08:51:42;;;;;;;4.57;0.63;;;11.70;99.90;;;;;;5058783;28;20046;-71
2022/09/17 08:54:21;;;;;;;6.20;0.82;;;11.80;99.90;;;;;;5075203;28;20036;-71
2022/09/17 08:56:55;;;;;;;4.20;0.60;;;11.90;99.90;;;;;;5046852;28;20059;-71
2022/09/17 08:59:33;;;;;;;2.88;0.60;;;12.00;99.90;;;;;;5058878;28;20066;-71
2022/09/17 09:02:13;;;;;;;5.28;0.60;;;12.10;99.90;;;;;;5072757;28;20046;-71
2022/09/17 09:05:01;;;;;;;6.90;1.48;;;12.30;99.90;;;;;;5051967;28;20052;-71
2022/09/17 09:07:33;;;;;;;5.95;0.60;;;12.50;99.90;;;;;;5060309;28;20502;-70
2022/09/17 09:10:18;;;;;;;6.45;1.00;;;12.50;99.90;;;;;;5053835;28;20044;-71
2022/09/17 09:12:45;;;;;;;2.80;0.77;;;12.40;99.90;;;;;;5074795;28;20135;-71
2022/09/17 09:15:19;;;;;;;;;;;12.30;99.90;;;;;;5059191;28;20123;-70
2022/09/17 09:17:47;;;;;;;2.92;0.40;;;12.20;99.90;;;;;;5050228;28;19920;-70
2022/09/17 09:20:41;;;;;;;1.52;0.35;;;12.10;99.90;;;;;;5079592;28;20603;-71
2022/09/17 09:23:18;;;;;;;3.85;0.60;;;12.10;99.90;;;;;;5047175;28;20170;-70
2022/09/17 09:26:00;;;;;;;2.47;0.60;;;12.00;99.90;;;;;;5068366;28;20052;-71
2022/09/17 09:28:38;;;;;;;2.08;0.40;;;12.00;99.90;;;;;;5074795;28;20668;-71
2022/09/17 09:31:26;;;;;;;3.00;0.68;;;12.10;99.90;;;;;;5080776;28;20107;-71
2022/09/17 09:33:52;;;;;;;7.03;0.80;;;12.10;99.90;;;;;;5065903;28;20032;-71
2022/09/17 09:36:20;;;;;;;3.75;0.55;;;12.00;99.90;;;;;;5079232;28;20596;-71
2022/09/17 09:38:52;;;;;;;2.33;0.57;;;11.90;99.90;;;;;;5046360;28;20216;-71
2022/09/17 09:41:23;;;;;;;4.43;0.73;;;11.80;99.90;;;;;;5080968;28;20047;-71
2022/09/17 09:44:01;;;;;;;6.80;0.95;;;11.80;99.90;;;;;;5080999;28;20165;-70
2022/09/17 09:46:32;;;;;;;1.13;0.40;;;11.80;99.90;;;;;;5059260;28;20127;-70
2022/09/17 09:49:39;;;;;;;3.55;0.43;;;11.80;99.90;;;;;;5055633;28;20138;-70
2022/09/17 09:52:35;;;;;;;2.03;0.80;;;12.00;99.90;;;;;;5052909;28;20073;-70
2022/09/17 09:55:01;;;;;;;4.05;0.60;;;12.10;99.90;;;;;;5078895;28;20390;-70
2022/09/17 09:57:34;;;;;;;6.80;0.80;;;12.20;99.90;;;;;;5060715;28;20047;-70
2022/09/17 10:00:21;;;;;;;1.88;0.38;;;12.40;99.90;;;;;;5064306;28;20036;-70
2022/09/17 10:02:48;;;;;;;5.57;1.73;;;12.50;99.90;;;;;;5066550;28;20645;-70
2022/09/17 10:05:14;;;;;;;5.57;0.98;;;12.60;99.90;;;;;;5083729;28;20159;-71
2022/09/17 10:07:44;;;;;;;6.07;0.90;;;12.80;99.90;;;;;;5079751;28;20294;-70
2022/09/17 10:10:10;;;;;;;6.13;1.00;;;12.90;99.90;;;;;;5063128;28;20493;-70
2022/09/17 10:12:37;;;;;;;3.97;0.80;;;13.10;99.90;;;;;;5069643;28;20036;-71
2022/09/17 10:15:23;;;;;;;8.50;1.00;;;13.20;99.90;;;;;;5066312;28;20048;-71
2022/09/17 10:17:49;;;;;;;5.15;0.98;;;13.30;99.90;;;;;;5074861;28;20075;-71
2022/09/17 10:20:16;;;;;;;7.03;0.82;;;13.50;99.90;;;;;;5079842;28;20322;-70
2022/09/17 10:22:46;;;;;;;5.45;0.77;;;13.60;99.90;;;;;;5042784;28;20056;-71
2022/09/17 10:25:33;;;;;;;3.17;0.50;;;13.80;99.90;;;;;;5076587;28;20136;-70
2022/09/17 10:28:03;;;;;;;3.63;0.88;;;14.00;99.90;;;;;;5066182;28;20115;-71
2022/09/17 10:30:29;;;;;;;3.92;0.50;;;14.20;99.90;;;;;;5075087;28;20070;-72
2022/09/17 10:33:18;;;;;;;3.08;0.40;;;14.10;99.90;;;;;;5065947;28;20043;-71
2022/09/17 10:36:00;;;;;;;2.72;0.95;;;14.10;99.90;;;;;;5076721;28;20048;-71
2022/09/17 10:38:38;;;;;;;2.45;0.60;;;14.00;99.90;;;;;;5067535;28;20509;-71
2022/09/17 10:41:14;;;;;;;1.95;0.50;;;14.00;99.90;;;;;;5061497;28;20071;-71
2022/09/17 10:43:40;;;;;;;2.33;0.43;;;14.00;99.90;;;;;;5074128;28;20047;-72
2022/09/17 10:46:11;;;;;;;3.38;0.40;;;14.10;99.90;;;;;;5052548;28;20047;-71
2022/09/17 10:48:56;;;;;;;1.98;0.40;;;14.30;99.90;;;;;;5049890;28;20091;-71
2022/09/17 10:51:24;;;;;;;3.65;0.60;;;14.40;99.90;;;;;;5077584;28;20119;-71
2022/09/17 10:54:21;;;;;;;2.97;0.45;;;14.50;99.90;;;;;;5070043;28;20052;-72
2022/09/17 10:56:56;;;;;;;4.10;1.00;;;14.50;99.90;;;;;;5048294;28;20040;-72
2022/09/17 10:59:53;;;;;;;3.67;0.52;;;14.10;99.90;;;;;;5076309;28;20072;-72
2022/09/17 11:02:45;;;;;;;5.10;0.87;;;13.80;99.90;;;;;;5067130;28;20047;-71
2022/09/17 11:05:22;;;;;;;4.82;0.80;;;13.40;99.90;;;;;;5053920;28;20277;-72
2022/09/17 11:08:07;;;;;;;1.15;0.40;;;13.00;99.90;;;;;;5064132;28;20108;-72
2022/09/17 11:10:56;;;;;;;2.03;0.57;;;12.70;99.90;;;;;;5076229;28;20052;-71
2022/09/17 11:13:35;;;;;;;5.30;0.65;;;12.40;99.90;;;;;;5052502;28;20051;-72
2022/09/17 11:16:38;;;;;;;3.55;0.60;;;12.20;99.90;;;;;;5074123;28;20078;-72
2022/09/17 11:19:26;;;;;;;6.03;0.65;;;12.10;99.90;;;;;;5040238;28;20089;-72
2022/09/17 11:21:55;;;;;;;2.85;0.40;;;12.20;99.90;;;;;;5056485;28;20040;-72
2022/09/17 11:24:45;;;;;;;6.70;1.35;;;12.30;99.90;;;;;;5074853;28;20119;-72
2022/09/17 11:27:20;;;;;;;3.03;0.80;;;12.50;99.90;;;;;;5062495;28;20571;-71
2022/09/17 11:30:09;;;;;;;7.10;0.73;;;12.80;99.90;;;;;;5068032;28;20094;-72
2022/09/17 11:32:56;;;;;;;4.63;0.52;;;12.90;99.90;;;;;;5055620;28;20521;-72
2022/09/17 11:35:45;;;;;;;7.22;0.98;;;12.80;99.90;;;;;;5077875;28;20123;-72
2022/09/17 11:38:46;;;;;;;4.15;0.90;;;12.70;99.90;;;;;;5077313;28;20468;-71
2022/09/17 11:41:23;;;;;;;5.68;0.77;;;12.60;99.90;;;;;;5039586;28;20059;-71
2022/09/17 11:44:08;;;;;;;5.88;1.00;;;12.50;99.90;;;;;;5051618;28;20486;-71
2022/09/17 11:46:46;;;;;;;4.63;1.10;;;12.50;99.90;;;;;;5061889;28;20170;-71
2022/09/17 11:49:25;;;;;;;7.38;0.93;;;12.70;99.90;;;;;;5074443;28;20133;-71
2022/09/17 11:52:06;;;;;;;4.97;1.08;;;13.00;99.90;;;;;;5074447;28;20086;-71
2022/09/17 11:54:50;;;;;;;4.60;0.57;;;13.00;99.90;;;;;;5075834;28;20044;-71
2022/09/17 11:57:32;;;;;;;5.95;1.10;;;13.00;99.90;;;;;;5047770;28;20044;-71
2022/09/17 12:00:16;;;;;;;6.82;0.88;;;13.00;99.90;;;;;;5060001;28;20139;-71
2022/09/17 12:02:51;;;;;;;5.20;0.80;;;13.00;99.90;;;;;;5060012;28;20044;-72
2022/09/17 12:05:31;;;;;;;6.10;1.08;;;13.20;99.90;;;;;;5065075;28;20040;-71
2022/09/17 12:08:24;;;;;;;4.82;1.52;;;13.40;99.90;;;;;;5057786;28;20044;-72
2022/09/17 12:11:22;;;;;;;4.30;1.00;;;13.70;99.90;;;;;;5075581;28;20303;-72
2022/09/17 12:14:10;;;;;;;9.85;1.08;;;13.90;99.90;;;;;;5078735;28;20209;-72
2022/09/17 12:16:42;;;;;;;6.57;1.40;;;14.20;99.90;;;;;;5052018;28;20036;-71
2022/09/17 12:19:38;;;;;;;7.93;1.42;;;14.40;99.90;;;;;;5057526;28;20102;-72
2022/09/17 12:22:14;;;;;;;8.73;0.93;;;14.50;99.90;;;;;;5054301;28;20044;-72
2022/09/17 12:24:41;;;;;;;6.07;1.00;;;14.70;99.90;;;;;;5068272;28;20043;-71
2022/09/17 12:27:09;;;;;;;4.30;0.70;;;14.80;99.90;;;;;;5079521;28;20222;-72
2022/09/17 12:29:43;;;;;;;4.45;1.00;;;14.60;99.90;;;;;;5059088;28;20343;-71
2022/09/17 12:32:33;;;;;;;3.25;0.70;;;14.40;99.90;;;;;;5055953;28;20036;-72
2022/09/17 12:35:15;;;;;;;5.63;1.00;;;14.00;99.90;;;;;;5068429;28;20052;-71
2022/09/17 12:37:47;;;;;;;3.65;1.45;;;13.80;99.90;;;;;;5058521;28;20088;-71
2022/09/17 12:40:31;;;;;;;2.42;0.60;;;13.60;99.90;;;;;;5078454;28;20498;-71
2022/09/17 12:43:05;;;;;;;4.32;0.80;;;13.60;99.90;;;;;;5075452;28;20119;-71
2022/09/17 12:45:40;;;;;;;10.30;1.25;;;13.70;99.90;;;;;;5082355;28;20040;-72
2022/09/17 12:48:24;;;;;;;6.78;1.63;;;13.90;99.90;;;;;;5062761;28;20040;-71
2022/09/17 12:51:09;;;;;;;5.00;0.80;;;14.10;99.90;;;;;;5063956;28;20035;-72
2022/09/17 12:54:16;;;;;;;8.20;1.23;;;14.40;99.90;;;;;;5070678;28;20044;-72
2022/09/17 12:57:04;;;;;;;7.78;1.52;;;14.60;99.90;;;;;;5044701;28;20047;-72
2022/09/17 12:59:39;;;;;;;8.48;1.23;;;14.80;99.90;;;;;;5060943;28;20122;-72
2022/09/17 13:02:11;;;;;;;7.05;2.03;;;14.80;99.90;;;;;;5080019;28;20389;-72
2022/09/17 13:04:52;;;;;;;5.50;1.20;;;14.80;99.90;;;;;;5084054;28;21355;-72
2022/09/17 13:07:39;;;;;;;10.30;1.48;;;14.70;99.90;;;;;;5073821;28;20050;-72
2022/09/17 13:10:32;;;;;;;6.53;1.00;;;14.80;99.90;;;;;;5079136;28;20039;-72
2022/09/17 13:13:22;;;;;;;9.95;1.52;;;14.80;99.90;;;;;;5083914;28;20135;-72
2022/09/17 13:16:07;;;;;;;8.45;1.25;;;14.90;99.90;;;;;;5081608;28;20078;-72
2022/09/17 13:19:00;;;;;;;6.78;1.02;;;15.00;99.90;;;;;;5082571;28;20093;-72